Аэропорт: Ханты-Мансийск. Ханты-Мансийск

ICAO: USHH

METAR:
2020-10-19 22:30:00
USHH 192230Z 27002MPS 9999 BKN002 00/00 Q1007 R24/290050 TEMPO 1000 SNRA VV002
METAR:
2020-10-19 19:44:00
TAF USHH 191944Z 1921/2021 24003G10MPS 6000 -SNRA BKN004 OVC016 TEMPO 1921/2007 0300 -FZRA FZFG VV002 BECMG 2003/2005 21003G08MPS